EZY897 EGJJ-EGGW
Flight info
| Callsign | EZY897 |
|---|---|
| Flight time | 0h 42m |
| Altitude | 20000 |
| Route | ORIST L982 TELTU |
| Aircraft | A319/M-SDE3FGHIRWY/LB1 |
Departure
| Time | 2026-05-07 20:27 |
|---|---|
| Airport | Jersey Airport (EGJJ) |
Arrival
| Time | 2026-05-07 21:09 |
|---|---|
| Airport | London Luton Airport (EGGW) |
| Time | Latitude | Longitude | Altitude | Speed | Heading |
|---|---|---|---|---|---|
| 2026-05-07 20:22 | 49.20448 | -2.19627 | 280 ft | 3 kts | 354° |
| 2026-05-07 20:22 | 49.20432 | -2.19620 | 287 ft | 2 kts | 315° |
| 2026-05-07 20:23 | 49.20426 | -2.19611 | 286 ft | 1 kts | 296° |
| 2026-05-07 20:23 | 49.20441 | -2.19681 | 280 ft | 10 kts | 278° |
| 2026-05-07 20:23 | 49.20439 | -2.19781 | 280 ft | 10 kts | 266° |
| 2026-05-07 20:23 | 49.20438 | -2.19885 | 280 ft | 11 kts | 283° |
| 2026-05-07 20:24 | 49.20489 | -2.19926 | 280 ft | 1 kts | 347° |
| 2026-05-07 20:24 | 49.20491 | -2.19927 | 280 ft | 1 kts | 342° |
| 2026-05-07 20:24 | 49.20528 | -2.20043 | 280 ft | 26 kts | 287° |
| 2026-05-07 20:25 | 49.20595 | -2.20376 | 280 ft | 39 kts | 286° |
| 2026-05-07 20:25 | 49.20626 | -2.20601 | 280 ft | 0 kts | 272° |
| 2026-05-07 20:25 | 49.20629 | -2.20629 | 280 ft | 7 kts | 284° |
| 2026-05-07 20:25 | 49.20684 | -2.20688 | 280 ft | 14 kts | 13° |
| 2026-05-07 20:26 | 49.20710 | -2.20585 | 279 ft | 0 kts | 83° |
| 2026-05-07 20:26 | 49.20736 | -2.20265 | 283 ft | 74 kts | 83° |
| 2026-05-07 20:26 | 49.20835 | -2.19103 | 282 ft | 144 kts | 83° |
| 2026-05-07 20:27 | 49.20975 | -2.17344 | 629 ft | 170 kts | 83° |
| 2026-05-07 20:27 | 49.21119 | -2.15721 | 1877 ft | 148 kts | 86° |
| 2026-05-07 20:27 | 49.21277 | -2.13978 | 2234 ft | 186 kts | 86° |
| 2026-05-07 20:27 | 49.21456 | -2.11997 | 3132 ft | 189 kts | 86° |
| 2026-05-07 20:28 | 49.21652 | -2.09674 | 3108 ft | 251 kts | 86° |
| 2026-05-07 20:28 | 49.22040 | -2.06778 | 3023 ft | 301 kts | 69° |
| 2026-05-07 20:28 | 49.23316 | -2.04370 | 3019 ft | 289 kts | 36° |
| 2026-05-07 20:28 | 49.25183 | -2.03355 | 3041 ft | 287 kts | 8° |
| 2026-05-07 20:29 | 49.27158 | -2.03278 | 3465 ft | 284 kts | 357° |
| 2026-05-07 20:29 | 49.29166 | -2.03498 | 4188 ft | 295 kts | 355° |
| 2026-05-07 20:29 | 49.31265 | -2.03733 | 4932 ft | 310 kts | 356° |
| 2026-05-07 20:29 | 49.33470 | -2.03881 | 5641 ft | 324 kts | 358° |
| 2026-05-07 20:30 | 49.35762 | -2.03919 | 6385 ft | 334 kts | 360° |
| 2026-05-07 20:30 | 49.38105 | -2.03862 | 7079 ft | 339 kts | 1° |
| 2026-05-07 20:30 | 49.40476 | -2.03747 | 7792 ft | 343 kts | 2° |
| 2026-05-07 20:30 | 49.42893 | -2.03601 | 8519 ft | 353 kts | 2° |
| 2026-05-07 20:31 | 49.45374 | -2.03444 | 9262 ft | 361 kts | 2° |
| 2026-05-07 20:31 | 49.47882 | -2.03290 | 10001 ft | 369 kts | 2° |
| 2026-05-07 20:31 | 49.50470 | -2.03140 | 10689 ft | 376 kts | 1° |
| 2026-05-07 20:31 | 49.53102 | -2.02997 | 11395 ft | 382 kts | 1° |
| 2026-05-07 20:32 | 49.55772 | -2.02852 | 12204 ft | 383 kts | 1° |
| 2026-05-07 20:32 | 49.58414 | -2.02710 | 13314 ft | 377 kts | 1° |
| 2026-05-07 20:32 | 49.61011 | -2.02571 | 14379 ft | 370 kts | 1° |
| 2026-05-07 20:32 | 49.63557 | -2.02438 | 15411 ft | 362 kts | 1° |
| 2026-05-07 20:33 | 49.66048 | -2.02312 | 16434 ft | 358 kts | 1° |
| 2026-05-07 20:33 | 49.68572 | -2.02187 | 16947 ft | 367 kts | 1° |
| 2026-05-07 20:33 | 49.71152 | -2.02053 | 17484 ft | 375 kts | 1° |
| 2026-05-07 20:33 | 49.73797 | -2.01913 | 17935 ft | 386 kts | 1° |
| 2026-05-07 20:34 | 49.76551 | -2.01771 | 18036 ft | 406 kts | 1° |
| 2026-05-07 20:34 | 49.79409 | -2.01135 | 18045 ft | 427 kts | 15° |
| 2026-05-07 20:34 | 49.82254 | -1.99557 | 18049 ft | 440 kts | 23° |
| 2026-05-07 20:34 | 49.85021 | -1.97470 | 18048 ft | 443 kts | 28° |
| 2026-05-07 20:35 | 49.87703 | -1.95109 | 18048 ft | 444 kts | 30° |
| 2026-05-07 20:35 | 49.90357 | -1.92652 | 18049 ft | 445 kts | 31° |
| 2026-05-07 20:35 | 49.93031 | -1.90215 | 18053 ft | 446 kts | 30° |
| 2026-05-07 20:35 | 49.95737 | -1.87853 | 18053 ft | 446 kts | 28° |
| 2026-05-07 20:36 | 49.98473 | -1.85577 | 18052 ft | 446 kts | 27° |
| 2026-05-07 20:36 | 50.01231 | -1.83365 | 18052 ft | 446 kts | 26° |
| 2026-05-07 20:36 | 50.04008 | -1.81202 | 18055 ft | 446 kts | 26° |
| 2026-05-07 20:36 | 50.06791 | -1.79059 | 18052 ft | 446 kts | 26° |
| 2026-05-07 20:37 | 50.09575 | -1.76908 | 18049 ft | 446 kts | 26° |
| 2026-05-07 20:37 | 50.12306 | -1.74615 | 18043 ft | 447 kts | 33° |
| 2026-05-07 20:37 | 50.14761 | -1.71666 | 18053 ft | 447 kts | 40° |
| 2026-05-07 20:37 | 50.14902 | -1.71483 | 18056 ft | 447 kts | 40° |
| 2026-05-07 20:38 | 50.14912 | -1.71470 | 18050 ft | 447 kts | 40° |
| 2026-05-07 20:39 | 50.16795 | -1.69019 | 18064 ft | 457 kts | 40° |
| 2026-05-07 20:39 | 50.16981 | -1.68777 | 18062 ft | 458 kts | 40° |
| 2026-05-07 20:40 | 50.18752 | -1.66471 | 18050 ft | 468 kts | 40° |
| 2026-05-07 20:40 | 50.21256 | -1.63213 | 18596 ft | 459 kts | 40° |
| 2026-05-07 20:40 | 50.23660 | -1.60080 | 19595 ft | 449 kts | 40° |
| 2026-05-07 20:40 | 50.26079 | -1.56915 | 19462 ft | 454 kts | 40° |
| 2026-05-07 20:41 | 50.28503 | -1.53736 | 19275 ft | 454 kts | 40° |
| 2026-05-07 20:41 | 50.30919 | -1.50563 | 19078 ft | 453 kts | 40° |
| 2026-05-07 20:41 | 50.33324 | -1.47400 | 18889 ft | 451 kts | 40° |
| 2026-05-07 20:41 | 50.35722 | -1.44242 | 18697 ft | 450 kts | 40° |
| 2026-05-07 20:42 | 50.38112 | -1.41098 | 18510 ft | 448 kts | 39° |
| 2026-05-07 20:42 | 50.40527 | -1.38002 | 18316 ft | 447 kts | 39° |
| 2026-05-07 20:42 | 50.42939 | -1.34945 | 18099 ft | 446 kts | 39° |
| 2026-05-07 20:42 | 50.45341 | -1.31890 | 17712 ft | 441 kts | 39° |
| 2026-05-07 20:43 | 50.47716 | -1.28830 | 17896 ft | 443 kts | 39° |
| 2026-05-07 20:43 | 50.50089 | -1.25730 | 18089 ft | 445 kts | 40° |
| 2026-05-07 20:43 | 50.52463 | -1.22607 | 18280 ft | 446 kts | 40° |
| 2026-05-07 20:43 | 50.54845 | -1.19469 | 18456 ft | 447 kts | 40° |
| 2026-05-07 20:44 | 50.57230 | -1.16326 | 18621 ft | 448 kts | 40° |
| 2026-05-07 20:44 | 50.59625 | -1.13170 | 18716 ft | 449 kts | 40° |
| 2026-05-07 20:44 | 50.62103 | -1.10169 | 18718 ft | 449 kts | 31° |
| 2026-05-07 20:44 | 50.64916 | -1.08088 | 18715 ft | 447 kts | 17° |
| 2026-05-07 20:45 | 50.67954 | -1.07124 | 18718 ft | 445 kts | 3° |
| 2026-05-07 20:45 | 50.71025 | -1.07307 | 18719 ft | 442 kts | 349° |
| 2026-05-07 20:45 | 50.74007 | -1.08459 | 18723 ft | 441 kts | 342° |
| 2026-05-07 20:45 | 50.76965 | -1.09720 | 18723 ft | 442 kts | 346° |
| 2026-05-07 20:46 | 50.80035 | -1.10045 | 18726 ft | 445 kts | 4° |
| 2026-05-07 20:46 | 50.83043 | -1.08915 | 18723 ft | 448 kts | 21° |
| 2026-05-07 20:46 | 50.85775 | -1.06545 | 18730 ft | 449 kts | 32° |
| 2026-05-07 20:46 | 50.88378 | -1.03936 | 18726 ft | 449 kts | 33° |
| 2026-05-07 20:47 | 50.90717 | -1.00599 | 18723 ft | 449 kts | 53° |
| 2026-05-07 20:47 | 50.92163 | -0.96254 | 18720 ft | 447 kts | 73° |
| 2026-05-07 20:47 | 50.92608 | -0.91483 | 18717 ft | 444 kts | 92° |
| 2026-05-07 20:47 | 50.92048 | -0.86648 | 18710 ft | 440 kts | 112° |
| 2026-05-07 20:48 | 50.90565 | -0.82457 | 18707 ft | 436 kts | 131° |
| 2026-05-07 20:48 | 50.88336 | -0.79266 | 18718 ft | 431 kts | 149° |
| 2026-05-07 20:48 | 50.85801 | -0.76730 | 18935 ft | 433 kts | 146° |
| 2026-05-07 20:48 | 50.83701 | -0.73277 | 19053 ft | 440 kts | 125° |
| 2026-05-07 20:49 | 50.82520 | -0.68810 | 19075 ft | 445 kts | 103° |
| 2026-05-07 20:49 | 50.82443 | -0.63929 | 19076 ft | 449 kts | 81° |
| 2026-05-07 20:49 | 50.83456 | -0.59408 | 19079 ft | 450 kts | 60° |
| 2026-05-07 20:49 | 50.85480 | -0.55653 | 19080 ft | 450 kts | 38° |
| 2026-05-07 20:50 | 50.88183 | -0.53206 | 19085 ft | 449 kts | 23° |
| 2026-05-07 20:50 | 50.90924 | -0.50845 | 19076 ft | 451 kts | 36° |
| 2026-05-07 20:50 | 50.93299 | -0.47597 | 19086 ft | 451 kts | 39° |
| 2026-05-07 20:50 | 50.95943 | -0.44970 | 19085 ft | 449 kts | 24° |
| 2026-05-07 20:51 | 50.98912 | -0.43532 | 19084 ft | 447 kts | 7° |
| 2026-05-07 20:51 | 51.02005 | -0.43422 | 19085 ft | 444 kts | 351° |
| 2026-05-07 20:51 | 51.05027 | -0.44351 | 19088 ft | 443 kts | 346° |
| 2026-05-07 20:51 | 51.08023 | -0.45370 | 19088 ft | 443 kts | 346° |
| 2026-05-07 20:52 | 51.11037 | -0.46391 | 19088 ft | 443 kts | 346° |
| 2026-05-07 20:52 | 51.14055 | -0.47403 | 19087 ft | 443 kts | 346° |
| 2026-05-07 20:52 | 51.17065 | -0.48407 | 18912 ft | 442 kts | 346° |
| 2026-05-07 20:52 | 51.20096 | -0.49248 | 18642 ft | 442 kts | 355° |
| 2026-05-07 20:53 | 51.23158 | -0.48859 | 18386 ft | 443 kts | 9° |
| 2026-05-07 20:53 | 51.26124 | -0.47541 | 18091 ft | 442 kts | 19° |
| 2026-05-07 20:53 | 51.28947 | -0.45618 | 17799 ft | 441 kts | 25° |
| 2026-05-07 20:53 | 51.31685 | -0.43413 | 17502 ft | 439 kts | 27° |
| 2026-05-07 20:54 | 51.34395 | -0.41178 | 17209 ft | 438 kts | 26° |
| 2026-05-07 20:54 | 51.37125 | -0.39044 | 16922 ft | 436 kts | 25° |
| 2026-05-07 20:54 | 51.39878 | -0.37056 | 16631 ft | 434 kts | 23° |
| 2026-05-07 20:54 | 51.42659 | -0.35191 | 16349 ft | 432 kts | 21° |
| 2026-05-07 20:55 | 51.45431 | -0.33350 | 16107 ft | 430 kts | 22° |
| 2026-05-07 20:55 | 51.48172 | -0.31408 | 15919 ft | 429 kts | 24° |
| 2026-05-07 20:55 | 51.50873 | -0.29384 | 15711 ft | 428 kts | 25° |
| 2026-05-07 20:55 | 51.53554 | -0.27304 | 15316 ft | 426 kts | 26° |
| 2026-05-07 20:56 | 51.56174 | -0.25239 | 14927 ft | 424 kts | 26° |
| 2026-05-07 20:56 | 51.57954 | -0.23835 | 14662 ft | 422 kts | 26° |
| 2026-05-07 20:56 | 51.60584 | -0.21771 | 14276 ft | 420 kts | 26° |
| 2026-05-07 20:56 | 51.63213 | -0.19734 | 13889 ft | 417 kts | 25° |
| 2026-05-07 20:57 | 51.65961 | -0.18359 | 13455 ft | 413 kts | 7° |
| 2026-05-07 20:57 | 51.68814 | -0.18404 | 13035 ft | 409 kts | 352° |
| 2026-05-07 20:57 | 51.72533 | -0.19194 | 12476 ft | 405 kts | 351° |
| 2026-05-07 20:57 | 51.74414 | -0.19605 | 12194 ft | 403 kts | 351° |
| 2026-05-07 20:58 | 51.77183 | -0.20213 | 11787 ft | 400 kts | 351° |
| 2026-05-07 20:58 | 51.79935 | -0.20821 | 11382 ft | 398 kts | 351° |
| 2026-05-07 20:58 | 51.82667 | -0.21425 | 10983 ft | 395 kts | 351° |
| 2026-05-07 20:58 | 51.85386 | -0.22026 | 10583 ft | 392 kts | 351° |
| 2026-05-07 20:59 | 51.88078 | -0.22621 | 10185 ft | 390 kts | 351° |
| 2026-05-07 20:59 | 51.90747 | -0.23211 | 9702 ft | 382 kts | 351° |
| 2026-05-07 20:59 | 51.93338 | -0.23782 | 9166 ft | 371 kts | 351° |
| 2026-05-07 20:59 | 51.95872 | -0.24344 | 8633 ft | 363 kts | 351° |
| 2026-05-07 21:00 | 51.98331 | -0.25086 | 8115 ft | 357 kts | 340° |
| 2026-05-07 21:00 | 52.00477 | -0.27008 | 7596 ft | 351 kts | 319° |
| 2026-05-07 21:00 | 52.01987 | -0.30039 | 7160 ft | 345 kts | 296° |
| 2026-05-07 21:00 | 52.02631 | -0.33760 | 7059 ft | 344 kts | 273° |
| 2026-05-07 21:01 | 52.02336 | -0.37584 | 7085 ft | 344 kts | 251° |
| 2026-05-07 21:01 | 52.01228 | -0.41016 | 7083 ft | 344 kts | 232° |
| 2026-05-07 21:01 | 51.99628 | -0.43906 | 7035 ft | 345 kts | 226° |
| 2026-05-07 21:01 | 51.97983 | -0.46710 | 6451 ft | 340 kts | 226° |
| 2026-05-07 21:02 | 51.96367 | -0.49454 | 5848 ft | 333 kts | 226° |
| 2026-05-07 21:02 | 51.94784 | -0.52151 | 5264 ft | 327 kts | 226° |
| 2026-05-07 21:02 | 51.93265 | -0.54756 | 5023 ft | 316 kts | 226° |
| 2026-05-07 21:02 | 51.91770 | -0.57330 | 4998 ft | 300 kts | 226° |
| 2026-05-07 21:03 | 51.90394 | -0.59698 | 5003 ft | 278 kts | 226° |
| 2026-05-07 21:03 | 51.89116 | -0.61905 | 5003 ft | 259 kts | 226° |
| 2026-05-07 21:03 | 51.87928 | -0.63963 | 4814 ft | 248 kts | 226° |
| 2026-05-07 21:03 | 51.86757 | -0.65999 | 4595 ft | 240 kts | 226° |
| 2026-05-07 21:04 | 51.85588 | -0.67886 | 4103 ft | 242 kts | 215° |
| 2026-05-07 21:04 | 51.84013 | -0.68842 | 3617 ft | 243 kts | 183° |
| 2026-05-07 21:04 | 51.82400 | -0.68334 | 3139 ft | 242 kts | 152° |
| 2026-05-07 21:04 | 51.81224 | -0.66484 | 2982 ft | 227 kts | 119° |
| 2026-05-07 21:05 | 51.80992 | -0.64185 | 2943 ft | 208 kts | 73° |
| 2026-05-07 21:05 | 51.81650 | -0.62146 | 2613 ft | 206 kts | 60° |
| 2026-05-07 21:05 | 51.82400 | -0.60255 | 2496 ft | 195 kts | 59° |
| 2026-05-07 21:05 | 51.83045 | -0.58362 | 2300 ft | 192 kts | 68° |
| 2026-05-07 21:06 | 51.83583 | -0.56409 | 1991 ft | 188 kts | 70° |
| 2026-05-07 21:06 | 51.84079 | -0.54470 | 1854 ft | 185 kts | 70° |
| 2026-05-07 21:06 | 51.84563 | -0.52522 | 1848 ft | 184 kts | 72° |
| 2026-05-07 21:06 | 51.84974 | -0.50652 | 1772 ft | 166 kts | 73° |
| 2026-05-07 21:07 | 51.85327 | -0.48966 | 1534 ft | 150 kts | 75° |
| 2026-05-07 21:07 | 51.85619 | -0.47435 | 1369 ft | 136 kts | 78° |
| 2026-05-07 21:07 | 51.85886 | -0.45967 | 1203 ft | 136 kts | 78° |
| 2026-05-07 21:07 | 51.86151 | -0.44476 | 1136 ft | 140 kts | 78° |
| 2026-05-07 21:08 | 51.86413 | -0.42927 | 1107 ft | 146 kts | 78° |
| 2026-05-07 21:08 | 51.86686 | -0.41277 | 947 ft | 157 kts | 76° |
| 2026-05-07 21:08 | 51.86982 | -0.39588 | 659 ft | 152 kts | 77° |
| 2026-05-07 21:08 | 51.87253 | -0.38044 | 529 ft | 130 kts | 74° |
| 2026-05-07 21:09 | 51.87459 | -0.36852 | 523 ft | 89 kts | 74° |
| 2026-05-07 21:09 | 51.87591 | -0.36100 | 516 ft | 35 kts | 75° |
| 2026-05-07 21:09 | 51.87606 | -0.36009 | 516 ft | 12 kts | 75° |
| 2026-05-07 21:09 | 51.87702 | -0.35933 | 516 ft | 19 kts | 348° |
| 2026-05-07 21:10 | 51.87733 | -0.35948 | 516 ft | 0 kts | 340° |
| 2026-05-07 21:10 | 51.87735 | -0.35950 | 516 ft | 3 kts | 336° |
| 2026-05-07 21:10 | 51.87776 | -0.36053 | 518 ft | 20 kts | 272° |
| 2026-05-07 21:10 | 51.87742 | -0.36326 | 518 ft | 28 kts | 255° |
| 2026-05-07 21:11 | 51.87735 | -0.36367 | 518 ft | 28 kts | 254° |
| 2026-05-07 21:11 | 51.87678 | -0.36691 | 522 ft | 32 kts | 255° |
| 2026-05-07 21:11 | 51.87583 | -0.37369 | 522 ft | 18 kts | 284° |
| 2026-05-07 21:12 | 51.87678 | -0.37518 | 521 ft | 22 kts | 313° |
| 2026-05-07 21:12 | 51.87755 | -0.37762 | 523 ft | 25 kts | 295° |
| 2026-05-07 21:12 | 51.87856 | -0.37997 | 523 ft | 26 kts | 336° |
| 2026-05-07 21:12 | 51.88005 | -0.37950 | 523 ft | 22 kts | 36° |
| 2026-05-07 21:13 | 51.88093 | -0.37833 | 523 ft | 7 kts | 54° |
| 2026-05-07 21:13 | 51.88088 | -0.37761 | 523 ft | 4 kts | 125° |
| 2026-05-07 21:13 | 51.88083 | -0.37749 | 523 ft | 2 kts | 124° |